Latest Weather Observations for Mudgee

IDN60801

Issued at 10:02 pm EDT Saturday 25 February 2017 (issued every 30 minutes, with the page automatically refreshed every 10 minutes)

About weather observations | Map of weather stations | Latest weather observations for NSW | Other Formats
Station Details ID: 062101 Name: MUDGEE AIRPORT AWS Lat: -32.56 Lon: 149.61 Height: 471.0 m
Data from the previous 72 hours. | See also: Recent months at Mudgee
Date/Time
EDT
Temp
°C
App
Temp
°C
Dew
Point
°C
Rel
Hum
%
Delta-T
°C
Wind Press
QNH
hPa
Press
MSL
hPa
Rain since
9am
mm
Dir  Spd
km/h
Gust
km/h
Spd
kts
Gust
kts
25/10:00pm 19.3 16.6 14.6 74 2.8 SE 22 46 12 25 1019.6 1017.2 0.0
25/09:30pm 19.2 16.5 14.5 74 2.8 SE 22 39 12 21 1019.1 1016.8 0.0
25/09:02pm 19.4 16.6 14.4 73 3.0 SE 22 41 12 22 1019.0 1016.7 0.0
25/09:00pm 19.4 17.0 14.4 73 3.0 SE 20 41 11 22 1019.1 1016.8 0.0
25/08:30pm 19.5 17.7 14.5 73 3.0 ESE 17 33 9 18 1018.8 1016.5 0.0
25/08:28pm 19.6 17.5 14.6 73 3.0 ESE 19 33 10 18 1018.8 1016.5 0.0
25/08:00pm 19.8 17.0 14.4 71 3.2 SE 22 35 12 19 1018.6 1016.3 0.0
25/07:30pm 20.3 17.9 14.4 69 3.5 SE 20 35 11 19 1019.2 1016.9 0.0
25/07:00pm 20.6 16.8 14.7 69 3.5 SE 28 48 15 26 1018.5 1016.2 0.0
25/06:40pm 20.8 16.9 14.5 67 3.8 SE 28 48 15 26 1018.4 1016.1 0.0
25/06:30pm 21.1 17.6 14.5 66 3.9 SE 26 52 14 28 1018.2 1015.8 0.0
25/06:00pm 22.2 18.7 14.6 62 4.6 SE 26 39 14 21 1017.3 1014.9 0.0
25/05:30pm 24.1 21.1 14.8 56 5.7 SE 24 39 13 21 1016.9 1014.6 0.0
25/05:00pm 25.2 22.2 14.9 52 6.3 SE 24 35 13 19 1017.0 1014.7 0.0
25/04:30pm 25.9 23.3 15.0 51 6.7 SE 22 33 12 18 1017.3 1014.9 0.0
25/04:00pm 26.6 24.2 15.3 50 7.0 ESE 22 37 12 20 1017.4 1015.0 0.0
25/03:30pm 26.6 24.0 15.0 49 7.1 SE 22 33 12 18 1017.6 1015.2 0.0
25/03:00pm 26.7 24.5 14.8 48 7.3 SE 20 30 11 16 1017.9 1015.5 0.0
25/02:30pm 26.6 24.7 15.3 50 7.0 SE 19 33 10 18 1018.1 1015.7 0.0
25/02:00pm 26.5 24.5 15.5 50 6.8 SE 20 35 11 19 1018.4 1016.1 0.0
25/01:30pm 26.0 23.5 15.1 51 6.7 SE 22 35 12 19 1018.6 1016.3 0.0
25/01:00pm 25.9 24.0 15.3 52 6.5 SE 19 28 10 15 1018.8 1016.5 0.0
25/12:30pm 25.9 24.4 16.2 55 6.1 SE 19 35 10 19 1019.4 1017.0 0.0
25/12:00pm 26.0 24.8 16.0 54 6.2 SE 17 24 9 13 1019.8 1017.4 0.0
25/11:30am 23.2 21.6 16.0 64 4.4 SE 19 26 10 14 1020.1 1017.7 0.0
25/11:00am 22.6 20.9 16.2 67 3.9 SE 20 32 11 17 1020.4 1018.1 0.0
25/10:30am 23.2 22.3 15.8 63 4.6 E 15 26 8 14 1020.5 1018.2 0.0
25/10:00am 22.6 22.0 15.7 65 4.2 ESE 13 22 7 12 1020.6 1018.3 0.0
25/09:30am 22.0 21.6 16.1 69 3.6 E 13 20 7 11 1020.7 1018.4 0.0
25/09:00am 21.4 21.7 16.1 72 3.2 ENE 9 17 5 9 1020.7 1018.4 0.4
25/08:30am 19.9 20.8 16.5 81 2.1 NNE 7 9 4 5 1020.6 1018.3 0.4
25/08:00am 18.3 18.7 16.3 88 1.2 NE 9 11 5 6 1020.3 1018.0 0.4
25/07:30am 17.1 17.8 16.1 94 0.6 NE 7 9 4 5 1020.0 1017.6 0.4
25/07:00am 17.5 18.3 15.8 90 1.0 E 6 7 3 4 1019.7 1017.3 0.4
25/06:30am 18.0 18.9 16.2 89 1.1 S 6 7 3 4 1019.6 1017.2 0.4
25/06:00am 17.1 17.9 14.7 86 1.4 E 4 7 2 4 1019.2 1016.9 0.4
25/05:30am 17.8 18.1 15.1 84 1.6 E 7 11 4 6 1018.9 1016.6 0.4
25/05:00am 18.8 18.8 15.1 79 2.2 E 9 15 5 8 1018.9 1016.6 0.4
25/04:30am 19.6 19.6 15.3 76 2.6 E 9 15 5 8 1018.9 1016.6 0.4
25/04:00am 19.5 19.9 15.2 76 2.6 E 7 13 4 7 1018.8 1016.5 0.4
25/03:52am 19.8 19.8 15.2 75 2.8 E 9 19 5 10 1018.8 1016.5 0.4
25/03:30am 20.0 19.0 15.6 76 2.7 SE 15 26 8 14 1019.1 1016.8 0.4
25/03:14am 20.0 19.5 15.8 77 2.6 SE 13 20 7 11 1019.2 1016.9 0.4
25/03:00am 20.2 19.4 16.0 77 2.6 SE 15 30 8 16 1019.2 1016.9 0.4
25/02:32am 20.1 19.6 15.9 77 2.6 SE 13 24 7 13 1019.2 1016.9 0.4
25/02:30am 20.2 19.4 16.0 77 2.6 SE 15 24 8 13 1019.2 1016.9 0.4
25/02:11am 20.1 20.4 15.9 77 2.6 E 9 15 5 8 1019.2 1016.9 0.4
25/02:00am 20.2 20.8 15.8 76 2.7 E 7 13 4 7 1019.4 1017.0 0.4
25/01:30am 20.5 20.7 15.7 74 2.9 ESE 9 17 5 9 1019.4 1017.0 0.4
25/01:00am 20.8 19.9 15.8 73 3.0 SE 15 26 8 14 1019.4 1017.0 0.4
25/12:30am 21.3 19.6 15.8 71 3.4 SE 19 28 10 15 1019.4 1017.0 0.4
25/12:00am 21.8 20.5 15.9 69 3.6 SE 17 28 9 15 1019.5 1017.1 0.4
 
Date/Time
EDT
Temp
°C
App
Temp
°C
Dew
Point
°C
Rel
Hum
%
Delta-T
°C
Wind Press
QNH
hPa
Press
MSL
hPa
Rain since
9am
mm
Dir  Spd
km/h
Gust
km/h
Spd
kts
Gust
kts
24/11:30pm 21.9 22.2 16.0 69 3.6 ESE 9 15 5 8 1019.7 1017.3 0.4
24/11:00pm 19.5 20.4 14.1 71 3.2 SE 2 7 1 4 1019.6 1017.2 0.4
24/10:30pm 20.6 22.0 14.5 68 3.6 CALM 0 0 0 0 1019.5 1017.1 0.4
24/10:00pm 20.7 21.8 13.6 64 4.2 CALM 0 0 0 0 1019.2 1016.9 0.4
24/09:30pm 21.1 20.6 13.8 63 4.3 ENE 9 11 5 6 1019.1 1016.8 0.4
24/09:00pm 23.2 22.6 14.7 58 5.1 SSE 11 13 6 7 1018.4 1016.1 0.4
24/08:30pm 24.0 22.7 14.7 56 5.6 S 15 17 8 9 1018.1 1015.7 0.2
24/08:00pm 25.4 24.8 13.6 48 7.1 SSE 9 15 5 8 1017.8 1015.4 0.2
24/07:30pm 26.2 25.5 13.3 45 7.7 S 9 15 5 8 1017.4 1015.0 0.2
24/07:00pm 27.1 26.1 13.4 42 8.2 SSW 11 15 6 8 1017.3 1014.9 0.2
24/06:30pm 26.5 24.1 14.3 47 7.4 S 20 26 11 14 1017.0 1014.7 0.2
24/06:00pm 26.4 26.5 13.9 46 7.5 NNE 6 9 3 5 1017.2 1014.8 0.2
24/05:30pm 26.5 24.3 13.3 44 7.9 ESE 17 28 9 15 1016.9 1014.6 0.2
24/05:00pm 25.5 23.1 13.7 48 7.1 E 19 37 10 20 1017.2 1014.8 0.2
24/04:30pm 27.2 24.3 12.8 41 8.6 SE 20 33 11 18 1017.8 1015.4 0.2
24/04:00pm 28.0 24.1 14.3 43 8.4 SE 28 39 15 21 1017.2 1014.8 0.2
24/03:30pm 30.2 27.5 13.5 36 10.2 SE 20 37 11 20 1017.0 1014.7 0.0
24/03:14pm 30.8 27.2 10.7 29 11.8 S 20 33 11 18 1016.8 1014.5 0.0
24/03:00pm 36.0 30.6 9.5 20 15.6 NNW 28 43 15 23 1016.2 1013.8 0.0
24/02:54pm 36.1 31.5 9.6 20 15.6 NNW 24 43 13 23 1016.0 1013.6 0.0
24/02:30pm 35.4 33.9 10.4 22 14.8 N 9 19 5 10 1016.5 1014.2 0.0
24/02:00pm 35.4 32.9 11.1 23 14.6 NNE 15 26 8 14 1017.0 1014.7 0.0
24/01:30pm 34.0 30.8 9.9 23 14.1 N 17 30 9 16 1017.8 1015.4 0.0
24/01:00pm 34.4 32.2 12.1 26 13.5 NW 15 24 8 13 1018.3 1016.0 0.0
24/12:30pm 33.6 31.6 12.6 28 12.8 NNW 15 26 8 14 1018.9 1016.6 0.0
24/12:00pm 32.9 30.5 12.5 29 12.4 N 17 26 9 14 1019.5 1017.1 0.0
24/11:30am 32.9 32.4 12.5 29 12.4 W 7 15 4 8 1019.8 1017.4 0.0
24/11:00am 31.9 31.6 13.2 32 11.4 WNW 7 13 4 7 1020.1 1017.7 0.0
24/10:30am 30.1 29.7 13.0 35 10.3 S 7 11 4 6 1020.4 1018.1 0.0
24/10:00am 28.6 28.4 12.9 38 9.4 SSW 6 11 3 6 1020.5 1018.2 0.0
24/09:30am 26.4 26.8 12.5 42 8.2 WSW 2 7 1 4 1020.6 1018.3 0.0
24/09:00am 24.9 24.6 12.8 47 7.1 SE 6 7 3 4 1020.7 1018.4 0.0
24/08:30am 21.9 21.4 12.5 55 5.4 S 7 11 4 6 1020.4 1018.1 0.0
24/08:00am 19.7 19.5 11.7 60 4.5 SSE 4 7 2 4 1020.4 1018.1 0.0
24/07:30am 17.1 17.5 11.2 68 3.3 CALM 0 0 0 0 1020.1 1017.7 0.0
24/07:00am 16.7 16.8 11.4 71 2.9 ENE 2 7 1 4 1019.9 1017.5 0.0
24/06:30am 16.6 17.0 11.1 70 3.0 CALM 0 0 0 0 1019.7 1017.3 0.0
24/06:00am 17.2 17.6 11.2 68 3.3 CALM 0 0 0 0 1019.4 1017.0 0.0
24/05:30am 16.6 15.8 10.9 69 3.1 NNE 6 9 3 5 1019.1 1016.8 0.0
24/05:00am 18.4 17.7 11.9 66 3.7 SE 7 11 4 6 1018.8 1016.5 0.0
24/04:30am 17.7 17.9 10.6 63 3.9 CALM 0 0 0 0 1018.7 1016.4 0.0
24/04:00am 19.6 18.5 11.9 61 4.4 SSE 9 11 5 6 1018.7 1016.4 0.0
24/03:30am 18.3 18.5 10.7 61 4.2 CALM 0 4 0 2 1018.8 1016.5 0.0
24/03:00am 20.5 19.8 11.4 56 5.1 SE 6 7 3 4 1018.9 1016.6 0.0
24/02:30am 20.8 21.2 11.2 54 5.4 CALM 0 4 0 2 1019.0 1016.7 0.0
24/02:00am 21.7 22.1 11.1 51 6.0 CALM 0 0 0 0 1019.1 1016.8 0.0
24/01:30am 22.3 21.6 11.4 50 6.2 SSE 6 7 3 4 1019.2 1016.9 0.0
24/01:00am 22.5 22.3 10.3 46 6.8 S 2 6 1 3 1019.2 1016.9 0.0
24/12:30am 25.4 23.9 10.4 39 8.5 SE 9 13 5 7 1019.2 1016.9 0.0
24/12:00am 26.9 25.7 10.2 35 9.5 SE 7 11 4 6 1019.5 1017.1 0.0
 
Date/Time
EDT
Temp
°C
App
Temp
°C
Dew
Point
°C
Rel
Hum
%
Delta-T
°C
Wind Press
QNH
hPa
Press
MSL
hPa
Rain since
9am
mm
Dir  Spd
km/h
Gust
km/h
Spd
kts
Gust
kts
23/11:30pm 26.8 24.9 10.5 36 9.3 S 11 13 6 7 1019.5 1017.1 0.0
23/11:00pm 28.5 25.1 10.7 33 10.3 NE 19 24 10 13 1019.4 1017.0 0.0
23/10:30pm 27.1 25.8 9.9 34 9.8 S 7 15 4 8 1019.5 1017.1 0.0
23/10:00pm 25.1 21.9 9.8 38 8.6 NNE 17 20 9 11 1019.1 1016.8 0.0
23/09:30pm 23.1 21.4 9.8 43 7.4 NE 9 13 5 7 1018.6 1016.3 0.0
23/09:00pm 26.8 25.2 8.7 32 10.0 N 7 9 4 5 1018.5 1016.2 0.0
23/08:30pm 29.2 29.1 9.3 29 11.3 CALM 0 0 0 0 1018.2 1015.8 0.0
23/08:00pm 29.6 28.0 8.6 27 11.8 NW 7 9 4 5 1017.9 1015.5 0.0
23/07:30pm 32.2 30.1 8.4 23 13.5 WNW 9 11 5 6 1017.6 1015.2 0.0
23/07:00pm 34.1 31.7 8.7 21 14.6 NW 11 15 6 8 1017.5 1015.1 0.0
23/06:30pm 34.3 31.6 8.8 21 14.7 NNW 13 20 7 11 1017.4 1015.0 0.0
23/06:00pm 34.6 33.7 9.1 21 14.8 SSE 4 11 2 6 1017.3 1014.9 0.0
23/05:30pm 34.4 33.0 9.6 22 14.5 W 7 24 4 13 1017.4 1015.0 0.0
23/05:00pm 35.2 33.1 9.6 21 15.0 ENE 11 20 6 11 1017.3 1014.9 0.0
23/04:30pm 34.4 31.7 8.9 21 14.7 NNW 13 20 7 11 1017.6 1015.2 0.0
23/04:00pm 34.6 32.1 9.8 22 14.5 NW 13 20 7 11 1017.9 1015.5 0.0
23/03:30pm 35.0 33.2 10.8 23 14.4 WSW 11 24 6 13 1018.2 1015.8 0.0
23/03:00pm 35.0 34.1 11.4 24 14.2 WSW 7 15 4 8 1018.4 1016.1 0.0
23/02:30pm 33.1 31.3 11.0 26 13.1 N 11 20 6 11 1018.8 1016.5 0.0
23/02:00pm 32.8 30.7 11.3 27 12.8 WNW 13 22 7 12 1019.2 1016.9 0.0
23/01:30pm 33.0 31.9 13.1 30 12.2 NNW 11 20 6 11 1019.6 1017.2 0.0
23/01:00pm 31.7 30.4 12.5 31 11.6 NW 11 17 6 9 1020.0 1017.6 0.0
23/12:30pm 31.3 30.2 13.1 33 11.1 NNE 11 26 6 14 1020.4 1018.1 0.0
23/12:00pm 30.4 29.9 13.7 36 10.2 NNW 9 19 5 10 1020.8 1018.5 0.0
23/11:30am 29.3 28.5 13.9 39 9.4 W 11 17 6 9 1021.2 1018.9 0.0
23/11:00am 28.1 27.7 14.0 42 8.6 NNW 9 19 5 10 1021.3 1019.0 0.0
23/10:30am 26.8 26.3 13.9 45 7.8 NNW 9 19 5 10 1021.5 1019.2 0.0
23/10:00am 26.2 26.8 14.3 48 7.2 NW 4 15 2 8 1021.7 1019.3 0.0
23/09:30am 24.5 25.2 14.6 54 6.0 ESE 4 9 2 5 1021.5 1019.2 0.0
23/09:00am 22.3 22.5 14.7 62 4.6 SSW 7 11 4 6 1021.8 1019.4 0.0
23/08:30am 20.2 21.3 13.4 65 4.0 CALM 0 0 0 0 1021.4 1019.1 0.0
23/08:00am 18.2 18.3 12.6 70 3.2 SSE 4 11 2 6 1021.1 1018.8 0.0
23/07:30am 16.4 17.2 12.6 78 2.1 CALM 0 0 0 0 1020.5 1018.2 0.0
23/07:00am 14.4 13.2 11.6 83 1.5 ENE 9 9 5 5 1020.1 1017.7 0.0
23/06:30am 15.0 15.4 11.4 79 2.0 CALM 0 0 0 0 1019.6 1017.2 0.0
23/06:00am 16.3 16.8 11.7 74 2.6 CALM 0 2 0 1 1019.1 1016.8 0.0
23/05:30am 16.6 17.2 12.0 74 2.6 CALM 0 0 0 0 1019.2 1016.9 0.0
23/05:00am 16.8 16.9 11.5 71 2.9 SSE 2 6 1 3 1019.2 1016.9 0.0
23/04:30am 17.4 17.7 12.1 71 3.0 S 2 7 1 4 1019.2 1016.9 0.0
23/04:00am 17.1 17.7 11.8 71 3.0 CALM 0 0 0 0 1019.2 1016.9 0.0
23/03:30am 17.8 18.1 10.9 64 3.8 CALM 0 6 0 3 1019.4 1017.0 0.0
23/03:00am 19.2 18.5 11.5 61 4.3 SSE 6 7 3 4 1019.2 1016.9 0.0
23/02:30am 19.3 19.7 11.1 59 4.6 CALM 0 4 0 2 1019.2 1016.9 0.0
23/02:00am 19.7 19.2 10.7 56 5.0 ESE 4 6 2 3 1019.4 1017.0 0.0
23/01:30am 21.0 19.6 10.8 52 5.7 SSE 9 13 5 7 1019.2 1016.9 0.0
23/01:00am 20.9 19.3 10.1 50 6.0 SSE 9 15 5 8 1019.4 1017.0 0.0
23/12:30am 22.2 21.2 10.4 47 6.6 SE 6 7 3 4 1019.5 1017.1 0.0
23/12:00am 23.9 23.0 10.6 43 7.5 SSE 6 9 3 5 1019.5 1017.1 0.0
 
Date/Time
EDT
Temp
°C
App
Temp
°C
Dew
Point
°C
Rel
Hum
%
Delta-T
°C
Wind Press
QNH
hPa
Press
MSL
hPa
Rain since
9am
mm
Dir  Spd
km/h
Gust
km/h
Spd
kts
Gust
kts
22/11:30pm 25.3 24.8 12.2 44 7.7 ESE 6 11 3 6 1019.4 1017.0 0.0
22/11:00pm 25.4 24.3 11.9 43 7.9 E 9 15 5 8 1019.0 1016.7 0.0
22/10:30pm 25.9 22.3 10.5 38 8.8 NE 20 26 11 14 1018.7 1016.4 0.0

Other Formats:

Comma delimited format used in spreadsheet applications
http://www.bom.gov.au/fwo/IDN60801/IDN60801.94727.axf

JavaScript Object Notation format (JSON) in row-major order
http://www.bom.gov.au/fwo/IDN60801/IDN60801.94727.json